sensor_id;sensor_type;location;lat;lon;timestamp;P1;durP1;ratioP1;P2;durP2;ratioP2
36797;SDS011;22748;8.426;99.512;2023-06-14T00:01:30;35.63;;;23.40;;
36797;SDS011;22748;8.426;99.512;2023-06-14T00:04:06;25.83;;;23.02;;
36797;SDS011;22748;8.426;99.512;2023-06-14T00:06:45;27.45;;;21.20;;
36797;SDS011;22748;8.426;99.512;2023-06-14T00:09:17;33.80;;;22.63;;
36797;SDS011;22748;8.426;99.512;2023-06-14T00:11:47;25.17;;;22.52;;
36797;SDS011;22748;8.426;99.512;2023-06-14T00:14:19;30.67;;;25.63;;
36797;SDS011;22748;8.426;99.512;2023-06-14T00:16:50;25.65;;;21.15;;
36797;SDS011;22748;8.426;99.512;2023-06-14T00:19:25;24.42;;;20.80;;
36797;SDS011;22748;8.426;99.512;2023-06-14T00:22:00;24.23;;;19.73;;
36797;SDS011;22748;8.426;99.512;2023-06-14T00:24:31;23.83;;;20.67;;
36797;SDS011;22748;8.426;99.512;2023-06-14T00:27:13;27.60;;;20.67;;
36797;SDS011;22748;8.426;99.512;2023-06-14T00:29:44;28.27;;;21.00;;
36797;SDS011;22748;8.426;99.512;2023-06-14T00:32:15;34.58;;;22.42;;
36797;SDS011;22748;8.426;99.512;2023-06-14T00:34:51;26.77;;;21.02;;
36797;SDS011;22748;8.426;99.512;2023-06-14T00:39:59;23.30;;;20.52;;
36797;SDS011;22748;8.426;99.512;2023-06-14T00:42:37;29.00;;;19.20;;
36797;SDS011;22748;8.426;99.512;2023-06-14T00:45:08;23.13;;;18.55;;
36797;SDS011;22748;8.426;99.512;2023-06-14T00:47:40;25.13;;;19.23;;
36797;SDS011;22748;8.426;99.512;2023-06-14T00:50:11;23.30;;;18.88;;
36797;SDS011;22748;8.426;99.512;2023-06-14T00:52:44;22.27;;;17.73;;
36797;SDS011;22748;8.426;99.512;2023-06-14T00:55:14;21.27;;;17.30;;
36797;SDS011;22748;8.426;99.512;2023-06-14T00:57:45;20.05;;;14.80;;
36797;SDS011;22748;8.426;99.512;2023-06-14T01:00:15;22.92;;;15.48;;
36797;SDS011;22748;8.426;99.512;2023-06-14T01:02:52;24.63;;;14.60;;
36797;SDS011;22748;8.426;99.512;2023-06-14T01:05:29;16.55;;;13.75;;
36797;SDS011;22748;8.426;99.512;2023-06-14T01:08:10;18.08;;;13.05;;
36797;SDS011;22748;8.426;99.512;2023-06-14T01:10:56;19.65;;;13.55;;
36797;SDS011;22748;8.426;99.512;2023-06-14T01:13:39;19.02;;;13.88;;
36797;SDS011;22748;8.426;99.512;2023-06-14T01:16:13;19.30;;;13.52;;
36797;SDS011;22748;8.426;99.512;2023-06-14T01:18:44;18.25;;;12.13;;
36797;SDS011;22748;8.426;99.512;2023-06-14T01:21:32;13.00;;;11.70;;
36797;SDS011;22748;8.426;99.512;2023-06-14T01:24:10;15.02;;;10.90;;
36797;SDS011;22748;8.426;99.512;2023-06-14T01:26:41;17.70;;;13.23;;
36797;SDS011;22748;8.426;99.512;2023-06-14T01:29:13;15.15;;;11.68;;
36797;SDS011;22748;8.426;99.512;2023-06-14T01:31:46;40.80;;;14.20;;
36797;SDS011;22748;8.426;99.512;2023-06-14T01:34:18;17.92;;;11.40;;
36797;SDS011;22748;8.426;99.512;2023-06-14T01:39:21;20.30;;;11.05;;
36797;SDS011;22748;8.426;99.512;2023-06-14T01:41:53;13.38;;;10.07;;
36797;SDS011;22748;8.426;99.512;2023-06-14T01:44:24;13.85;;;10.30;;
36797;SDS011;22748;8.426;99.512;2023-06-14T01:46:56;19.58;;;10.68;;
36797;SDS011;22748;8.426;99.512;2023-06-14T01:51:57;12.18;;;7.28;;
36797;SDS011;22748;8.426;99.512;2023-06-14T01:54:30;10.25;;;6.55;;
36797;SDS011;22748;8.426;99.512;2023-06-14T01:57:01;13.30;;;7.28;;
36797;SDS011;22748;8.426;99.512;2023-06-14T01:59:33;12.70;;;7.22;;
36797;SDS011;22748;8.426;99.512;2023-06-14T02:02:04;16.60;;;7.35;;
36797;SDS011;22748;8.426;99.512;2023-06-14T02:07:04;10.27;;;5.75;;
36797;SDS011;22748;8.426;99.512;2023-06-14T02:09:37;10.52;;;5.85;;
36797;SDS011;22748;8.426;99.512;2023-06-14T02:12:09;14.07;;;5.00;;
36797;SDS011;22748;8.426;99.512;2023-06-14T02:14:40;11.38;;;5.28;;
36797;SDS011;22748;8.426;99.512;2023-06-14T02:17:11;8.23;;;4.93;;
36797;SDS011;22748;8.426;99.512;2023-06-14T02:19:41;13.73;;;6.63;;
36797;SDS011;22748;8.426;99.512;2023-06-14T02:22:13;10.68;;;5.13;;
36797;SDS011;22748;8.426;99.512;2023-06-14T02:24:45;11.60;;;5.28;;
36797;SDS011;22748;8.426;99.512;2023-06-14T02:27:19;12.63;;;5.68;;
36797;SDS011;22748;8.426;99.512;2023-06-14T02:29:50;12.73;;;5.05;;
36797;SDS011;22748;8.426;99.512;2023-06-14T02:32:27;12.10;;;5.07;;
36797;SDS011;22748;8.426;99.512;2023-06-14T02:35:01;20.33;;;7.90;;
36797;SDS011;22748;8.426;99.512;2023-06-14T02:37:31;12.25;;;5.78;;
36797;SDS011;22748;8.426;99.512;2023-06-14T02:40:06;10.45;;;5.57;;
36797;SDS011;22748;8.426;99.512;2023-06-14T02:42:37;15.38;;;7.70;;
36797;SDS011;22748;8.426;99.512;2023-06-14T02:45:07;7.95;;;5.78;;
36797;SDS011;22748;8.426;99.512;2023-06-14T02:47:44;22.30;;;5.78;;
36797;SDS011;22748;8.426;99.512;2023-06-14T02:50:14;10.85;;;5.07;;
36797;SDS011;22748;8.426;99.512;2023-06-14T02:52:44;8.90;;;5.47;;
36797;SDS011;22748;8.426;99.512;2023-06-14T02:55:19;10.93;;;5.00;;
36797;SDS011;22748;8.426;99.512;2023-06-14T02:57:49;11.15;;;5.53;;
36797;SDS011;22748;8.426;99.512;2023-06-14T03:00:20;12.15;;;5.00;;
36797;SDS011;22748;8.426;99.512;2023-06-14T03:02:51;10.70;;;4.80;;
36797;SDS011;22748;8.426;99.512;2023-06-14T03:05:23;13.70;;;6.10;;
36797;SDS011;22748;8.426;99.512;2023-06-14T03:07:54;20.35;;;8.43;;
36797;SDS011;22748;8.426;99.512;2023-06-14T03:10:27;12.13;;;4.88;;
36797;SDS011;22748;8.426;99.512;2023-06-14T03:12:58;10.48;;;4.72;;
36797;SDS011;22748;8.426;99.512;2023-06-14T03:17:59;8.85;;;4.70;;
36797;SDS011;22748;8.426;99.512;2023-06-14T03:20:34;11.18;;;6.80;;
36797;SDS011;22748;8.426;99.512;2023-06-14T03:23:04;14.02;;;7.35;;
36797;SDS011;22748;8.426;99.512;2023-06-14T03:25:41;11.20;;;4.10;;
36797;SDS011;22748;8.426;99.512;2023-06-14T03:28:13;11.65;;;5.72;;
36797;SDS011;22748;8.426;99.512;2023-06-14T03:30:45;12.13;;;6.30;;
36797;SDS011;22748;8.426;99.512;2023-06-14T03:33:15;10.73;;;6.88;;
36797;SDS011;22748;8.426;99.512;2023-06-14T03:35:46;16.75;;;6.32;;
36797;SDS011;22748;8.426;99.512;2023-06-14T03:38:23;12.73;;;5.25;;
36797;SDS011;22748;8.426;99.512;2023-06-14T03:40:58;13.07;;;5.30;;
36797;SDS011;22748;8.426;99.512;2023-06-14T03:43:36;22.73;;;11.90;;
36797;SDS011;22748;8.426;99.512;2023-06-14T03:48:36;14.63;;;7.72;;
36797;SDS011;22748;8.426;99.512;2023-06-14T03:51:08;10.05;;;5.03;;
36797;SDS011;22748;8.426;99.512;2023-06-14T03:53:38;12.15;;;5.43;;
36797;SDS011;22748;8.426;99.512;2023-06-14T03:56:11;16.80;;;14.07;;
36797;SDS011;22748;8.426;99.512;2023-06-14T03:58:41;23.20;;;17.48;;
36797;SDS011;22748;8.426;99.512;2023-06-14T04:01:11;10.50;;;6.00;;
36797;SDS011;22748;8.426;99.512;2023-06-14T04:03:42;8.02;;;5.40;;
36797;SDS011;22748;8.426;99.512;2023-06-14T04:06:13;10.63;;;7.32;;
36797;SDS011;22748;8.426;99.512;2023-06-14T04:08:45;10.98;;;5.95;;
36797;SDS011;22748;8.426;99.512;2023-06-14T04:11:17;9.00;;;5.43;;
36797;SDS011;22748;8.426;99.512;2023-06-14T04:13:49;9.65;;;4.80;;
36797;SDS011;22748;8.426;99.512;2023-06-14T04:16:20;13.05;;;5.55;;
36797;SDS011;22748;8.426;99.512;2023-06-14T04:18:51;17.52;;;12.38;;
36797;SDS011;22748;8.426;99.512;2023-06-14T04:21:21;13.77;;;12.27;;
36797;SDS011;22748;8.426;99.512;2023-06-14T04:24:00;11.60;;;5.72;;
36797;SDS011;22748;8.426;99.512;2023-06-14T04:26:39;12.00;;;5.50;;
36797;SDS011;22748;8.426;99.512;2023-06-14T04:29:12;14.88;;;7.40;;
36797;SDS011;22748;8.426;99.512;2023-06-14T04:31:43;12.00;;;4.60;;
36797;SDS011;22748;8.426;99.512;2023-06-14T04:36:44;13.82;;;5.47;;
36797;SDS011;22748;8.426;99.512;2023-06-14T04:39:16;10.43;;;4.25;;
36797;SDS011;22748;8.426;99.512;2023-06-14T04:41:50;15.82;;;12.27;;
36797;SDS011;22748;8.426;99.512;2023-06-14T04:44:24;11.65;;;8.85;;
36797;SDS011;22748;8.426;99.512;2023-06-14T04:46:56;8.73;;;5.93;;
36797;SDS011;22748;8.426;99.512;2023-06-14T04:49:34;12.77;;;6.13;;
36797;SDS011;22748;8.426;99.512;2023-06-14T04:52:04;10.02;;;4.88;;
36797;SDS011;22748;8.426;99.512;2023-06-14T04:54:37;10.88;;;4.80;;
36797;SDS011;22748;8.426;99.512;2023-06-14T04:57:11;7.88;;;4.30;;
36797;SDS011;22748;8.426;99.512;2023-06-14T04:59:44;7.32;;;3.97;;
36797;SDS011;22748;8.426;99.512;2023-06-14T05:02:16;11.43;;;4.47;;
36797;SDS011;22748;8.426;99.512;2023-06-14T05:04:46;8.15;;;4.00;;
36797;SDS011;22748;8.426;99.512;2023-06-14T05:07:18;9.52;;;4.22;;
36797;SDS011;22748;8.426;99.512;2023-06-14T05:09:56;13.70;;;4.65;;
36797;SDS011;22748;8.426;99.512;2023-06-14T05:12:29;13.00;;;4.28;;
36797;SDS011;22748;8.426;99.512;2023-06-14T05:15:00;13.57;;;4.45;;
36797;SDS011;22748;8.426;99.512;2023-06-14T05:17:33;8.98;;;4.47;;
36797;SDS011;22748;8.426;99.512;2023-06-14T05:20:05;6.68;;;3.67;;
36797;SDS011;22748;8.426;99.512;2023-06-14T05:22:39;11.07;;;4.10;;
36797;SDS011;22748;8.426;99.512;2023-06-14T05:25:10;9.38;;;3.80;;
36797;SDS011;22748;8.426;99.512;2023-06-14T05:27:43;12.32;;;3.80;;
36797;SDS011;22748;8.426;99.512;2023-06-14T05:30:15;9.48;;;3.55;;
36797;SDS011;22748;8.426;99.512;2023-06-14T05:32:45;6.97;;;3.28;;
36797;SDS011;22748;8.426;99.512;2023-06-14T05:37:45;6.55;;;3.35;;
36797;SDS011;22748;8.426;99.512;2023-06-14T05:40:15;10.50;;;3.67;;
36797;SDS011;22748;8.426;99.512;2023-06-14T05:42:52;6.60;;;2.85;;
36797;SDS011;22748;8.426;99.512;2023-06-14T05:45:23;10.20;;;2.72;;
36797;SDS011;22748;8.426;99.512;2023-06-14T05:47:54;8.40;;;3.38;;
36797;SDS011;22748;8.426;99.512;2023-06-14T05:50:25;11.35;;;3.60;;
36797;SDS011;22748;8.426;99.512;2023-06-14T05:52:56;7.18;;;3.58;;
36797;SDS011;22748;8.426;99.512;2023-06-14T05:55:27;8.27;;;3.10;;
36797;SDS011;22748;8.426;99.512;2023-06-14T05:58:01;15.82;;;3.75;;
36797;SDS011;22748;8.426;99.512;2023-06-14T06:00:32;9.18;;;2.97;;
36797;SDS011;22748;8.426;99.512;2023-06-14T06:03:03;10.40;;;3.15;;
36797;SDS011;22748;8.426;99.512;2023-06-14T06:05:38;8.43;;;3.17;;
36797;SDS011;22748;8.426;99.512;2023-06-14T06:10:38;9.30;;;2.60;;
36797;SDS011;22748;8.426;99.512;2023-06-14T06:13:10;6.47;;;2.83;;
36797;SDS011;22748;8.426;99.512;2023-06-14T06:15:45;5.72;;;2.72;;
36797;SDS011;22748;8.426;99.512;2023-06-14T06:18:15;6.07;;;2.78;;
36797;SDS011;22748;8.426;99.512;2023-06-14T06:20:49;5.55;;;2.50;;
36797;SDS011;22748;8.426;99.512;2023-06-14T06:23:22;6.47;;;2.80;;
36797;SDS011;22748;8.426;99.512;2023-06-14T06:26:01;12.18;;;3.42;;
36797;SDS011;22748;8.426;99.512;2023-06-14T06:28:40;7.30;;;2.95;;
36797;SDS011;22748;8.426;99.512;2023-06-14T06:31:12;7.50;;;3.10;;
36797;SDS011;22748;8.426;99.512;2023-06-14T06:33:55;7.78;;;2.67;;
36797;SDS011;22748;8.426;99.512;2023-06-14T06:36:28;8.50;;;2.38;;
36797;SDS011;22748;8.426;99.512;2023-06-14T06:39:00;5.80;;;2.30;;
36797;SDS011;22748;8.426;99.512;2023-06-14T06:41:37;13.27;;;4.60;;
36797;SDS011;22748;8.426;99.512;2023-06-14T06:44:10;6.68;;;2.85;;
36797;SDS011;22748;8.426;99.512;2023-06-14T06:46:43;4.65;;;2.58;;
36797;SDS011;22748;8.426;99.512;2023-06-14T06:49:17;9.15;;;2.30;;
36797;SDS011;22748;8.426;99.512;2023-06-14T06:51:59;10.82;;;2.47;;
36797;SDS011;22748;8.426;99.512;2023-06-14T06:54:30;6.72;;;2.35;;
36797;SDS011;22748;8.426;99.512;2023-06-14T06:57:02;4.95;;;2.67;;
36797;SDS011;22748;8.426;99.512;2023-06-14T06:59:36;6.07;;;3.00;;
36797;SDS011;22748;8.426;99.512;2023-06-14T07:02:07;9.50;;;2.53;;
36797;SDS011;22748;8.426;99.512;2023-06-14T07:04:38;6.68;;;2.47;;
36797;SDS011;22748;8.426;99.512;2023-06-14T07:09:38;7.47;;;2.53;;
36797;SDS011;22748;8.426;99.512;2023-06-14T07:12:09;6.07;;;2.60;;
36797;SDS011;22748;8.426;99.512;2023-06-14T07:14:42;6.60;;;2.60;;
36797;SDS011;22748;8.426;99.512;2023-06-14T07:17:15;7.90;;;2.28;;
36797;SDS011;22748;8.426;99.512;2023-06-14T07:19:51;5.78;;;2.60;;
36797;SDS011;22748;8.426;99.512;2023-06-14T07:22:23;8.35;;;2.10;;
36797;SDS011;22748;8.426;99.512;2023-06-14T07:24:54;7.72;;;2.50;;
36797;SDS011;22748;8.426;99.512;2023-06-14T07:29:56;6.78;;;2.10;;
36797;SDS011;22748;8.426;99.512;2023-06-14T07:32:27;4.75;;;1.77;;
36797;SDS011;22748;8.426;99.512;2023-06-14T07:34:58;7.10;;;2.00;;
36797;SDS011;22748;8.426;99.512;2023-06-14T07:37:38;6.23;;;2.50;;
36797;SDS011;22748;8.426;99.512;2023-06-14T07:40:13;5.10;;;2.30;;
36797;SDS011;22748;8.426;99.512;2023-06-14T07:42:43;6.35;;;2.10;;
36797;SDS011;22748;8.426;99.512;2023-06-14T07:45:24;5.88;;;2.17;;
36797;SDS011;22748;8.426;99.512;2023-06-14T07:48:02;5.80;;;2.35;;
36797;SDS011;22748;8.426;99.512;2023-06-14T07:50:33;7.18;;;1.92;;
36797;SDS011;22748;8.426;99.512;2023-06-14T07:55:32;4.57;;;2.38;;
36797;SDS011;22748;8.426;99.512;2023-06-14T07:58:03;5.82;;;2.15;;
36797;SDS011;22748;8.426;99.512;2023-06-14T08:03:06;6.13;;;1.70;;
36797;SDS011;22748;8.426;99.512;2023-06-14T08:05:37;3.95;;;1.83;;
36797;SDS011;22748;8.426;99.512;2023-06-14T08:08:08;6.65;;;2.30;;
36797;SDS011;22748;8.426;99.512;2023-06-14T08:10:39;7.90;;;2.60;;
36797;SDS011;22748;8.426;99.512;2023-06-14T08:13:11;4.13;;;2.28;;
36797;SDS011;22748;8.426;99.512;2023-06-14T08:15:44;8.18;;;2.85;;
36797;SDS011;22748;8.426;99.512;2023-06-14T08:18:14;6.63;;;2.30;;
36797;SDS011;22748;8.426;99.512;2023-06-14T08:20:44;5.28;;;2.42;;
36797;SDS011;22748;8.426;99.512;2023-06-14T08:23:14;9.02;;;2.88;;
36797;SDS011;22748;8.426;99.512;2023-06-14T08:25:47;4.78;;;2.55;;
36797;SDS011;22748;8.426;99.512;2023-06-14T08:28:17;4.75;;;2.38;;
36797;SDS011;22748;8.426;99.512;2023-06-14T08:30:49;8.50;;;2.88;;
36797;SDS011;22748;8.426;99.512;2023-06-14T08:33:20;6.95;;;3.22;;
36797;SDS011;22748;8.426;99.512;2023-06-14T08:35:51;7.25;;;2.80;;
36797;SDS011;22748;8.426;99.512;2023-06-14T08:38:23;4.47;;;2.70;;
36797;SDS011;22748;8.426;99.512;2023-06-14T08:40:54;6.13;;;2.85;;
36797;SDS011;22748;8.426;99.512;2023-06-14T08:43:28;3.95;;;2.50;;
36797;SDS011;22748;8.426;99.512;2023-06-14T08:46:01;5.60;;;2.45;;
36797;SDS011;22748;8.426;99.512;2023-06-14T08:48:38;6.45;;;2.83;;
36797;SDS011;22748;8.426;99.512;2023-06-14T08:51:09;6.07;;;2.72;;
36797;SDS011;22748;8.426;99.512;2023-06-14T08:53:43;10.68;;;2.80;;
36797;SDS011;22748;8.426;99.512;2023-06-14T08:56:13;4.63;;;2.58;;
36797;SDS011;22748;8.426;99.512;2023-06-14T08:58:44;5.38;;;2.60;;
36797;SDS011;22748;8.426;99.512;2023-06-14T09:01:18;6.13;;;2.72;;
36797;SDS011;22748;8.426;99.512;2023-06-14T09:03:49;4.40;;;2.50;;
36797;SDS011;22748;8.426;99.512;2023-06-14T09:06:21;7.18;;;3.15;;
36797;SDS011;22748;8.426;99.512;2023-06-14T09:08:55;7.40;;;2.72;;
36797;SDS011;22748;8.426;99.512;2023-06-14T09:11:25;7.53;;;3.22;;
36797;SDS011;22748;8.426;99.512;2023-06-14T09:13:56;7.40;;;3.17;;
36797;SDS011;22748;8.426;99.512;2023-06-14T09:16:28;7.70;;;2.58;;
36797;SDS011;22748;8.426;99.512;2023-06-14T09:19:01;4.55;;;2.63;;
36797;SDS011;22748;8.426;99.512;2023-06-14T09:21:33;7.60;;;2.92;;
36797;SDS011;22748;8.426;99.512;2023-06-14T09:24:05;7.03;;;3.38;;
36797;SDS011;22748;8.426;99.512;2023-06-14T09:26:43;10.45;;;2.83;;
36797;SDS011;22748;8.426;99.512;2023-06-14T09:29:24;7.97;;;3.70;;
36797;SDS011;22748;8.426;99.512;2023-06-14T09:32:00;5.22;;;2.78;;
36797;SDS011;22748;8.426;99.512;2023-06-14T09:34:46;6.25;;;3.03;;
36797;SDS011;22748;8.426;99.512;2023-06-14T09:37:38;11.30;;;3.22;;
36797;SDS011;22748;8.426;99.512;2023-06-14T09:40:09;9.30;;;3.30;;
36797;SDS011;22748;8.426;99.512;2023-06-14T09:42:41;6.72;;;2.78;;
36797;SDS011;22748;8.426;99.512;2023-06-14T09:45:24;9.40;;;2.97;;
36797;SDS011;22748;8.426;99.512;2023-06-14T09:48:03;6.68;;;2.60;;
36797;SDS011;22748;8.426;99.512;2023-06-14T09:50:35;6.15;;;2.38;;
36797;SDS011;22748;8.426;99.512;2023-06-14T09:55:37;8.73;;;2.47;;
36797;SDS011;22748;8.426;99.512;2023-06-14T09:58:09;7.93;;;2.40;;
36797;SDS011;22748;8.426;99.512;2023-06-14T10:00:46;3.85;;;1.90;;
36797;SDS011;22748;8.426;99.512;2023-06-14T10:03:24;5.45;;;1.90;;
36797;SDS011;22748;8.426;99.512;2023-06-14T10:06:03;5.05;;;2.00;;
36797;SDS011;22748;8.426;99.512;2023-06-14T10:08:38;6.88;;;2.78;;
36797;SDS011;22748;8.426;99.512;2023-06-14T10:11:12;9.82;;;3.13;;
36797;SDS011;22748;8.426;99.512;2023-06-14T10:13:44;9.32;;;3.92;;
36797;SDS011;22748;8.426;99.512;2023-06-14T10:16:15;5.22;;;2.13;;
36797;SDS011;22748;8.426;99.512;2023-06-14T10:18:51;7.57;;;3.63;;
36797;SDS011;22748;8.426;99.512;2023-06-14T10:21:33;5.82;;;3.50;;
36797;SDS011;22748;8.426;99.512;2023-06-14T10:24:13;9.27;;;3.80;;
36797;SDS011;22748;8.426;99.512;2023-06-14T10:27:01;9.50;;;4.93;;
36797;SDS011;22748;8.426;99.512;2023-06-14T10:29:31;8.98;;;4.55;;
36797;SDS011;22748;8.426;99.512;2023-06-14T10:32:02;12.85;;;7.03;;
36797;SDS011;22748;8.426;99.512;2023-06-14T10:34:34;14.50;;;6.50;;
36797;SDS011;22748;8.426;99.512;2023-06-14T10:37:11;10.95;;;5.05;;
36797;SDS011;22748;8.426;99.512;2023-06-14T10:39:42;6.70;;;3.20;;
36797;SDS011;22748;8.426;99.512;2023-06-14T10:42:14;6.15;;;3.35;;
36797;SDS011;22748;8.426;99.512;2023-06-14T10:44:45;6.18;;;3.13;;
36797;SDS011;22748;8.426;99.512;2023-06-14T10:47:22;6.95;;;4.28;;
36797;SDS011;22748;8.426;99.512;2023-06-14T10:49:56;10.93;;;4.95;;
36797;SDS011;22748;8.426;99.512;2023-06-14T10:52:33;12.32;;;6.10;;
36797;SDS011;22748;8.426;99.512;2023-06-14T10:55:07;12.95;;;6.25;;
36797;SDS011;22748;8.426;99.512;2023-06-14T10:57:41;11.70;;;5.40;;
36797;SDS011;22748;8.426;99.512;2023-06-14T11:00:12;13.25;;;7.53;;
36797;SDS011;22748;8.426;99.512;2023-06-14T11:03:05;11.43;;;6.10;;
36797;SDS011;22748;8.426;99.512;2023-06-14T11:05:59;10.25;;;5.60;;
36797;SDS011;22748;8.426;99.512;2023-06-14T11:11:53;11.43;;;4.75;;
36797;SDS011;22748;8.426;99.512;2023-06-14T11:14:30;16.67;;;9.25;;
36797;SDS011;22748;8.426;99.512;2023-06-14T11:17:01;9.95;;;5.53;;
36797;SDS011;22748;8.426;99.512;2023-06-14T11:19:32;9.32;;;6.03;;
36797;SDS011;22748;8.426;99.512;2023-06-14T11:22:05;10.13;;;4.82;;
36797;SDS011;22748;8.426;99.512;2023-06-14T11:24:35;10.35;;;4.63;;
36797;SDS011;22748;8.426;99.512;2023-06-14T11:27:08;14.23;;;4.90;;
36797;SDS011;22748;8.426;99.512;2023-06-14T11:29:43;11.50;;;4.70;;
36797;SDS011;22748;8.426;99.512;2023-06-14T11:32:18;14.52;;;5.85;;
36797;SDS011;22748;8.426;99.512;2023-06-14T11:34:49;10.30;;;5.65;;
36797;SDS011;22748;8.426;99.512;2023-06-14T11:37:22;11.07;;;5.47;;
36797;SDS011;22748;8.426;99.512;2023-06-14T11:39:56;13.43;;;7.30;;
36797;SDS011;22748;8.426;99.512;2023-06-14T11:42:27;15.50;;;6.93;;
36797;SDS011;22748;8.426;99.512;2023-06-14T11:44:58;10.07;;;6.45;;
36797;SDS011;22748;8.426;99.512;2023-06-14T11:47:31;11.75;;;6.40;;
36797;SDS011;22748;8.426;99.512;2023-06-14T11:50:03;21.73;;;9.73;;
36797;SDS011;22748;8.426;99.512;2023-06-14T11:52:51;20.65;;;10.35;;
36797;SDS011;22748;8.426;99.512;2023-06-14T11:55:23;17.63;;;8.90;;
36797;SDS011;22748;8.426;99.512;2023-06-14T11:57:55;21.73;;;12.20;;
36797;SDS011;22748;8.426;99.512;2023-06-14T12:00:26;24.30;;;11.85;;
36797;SDS011;22748;8.426;99.512;2023-06-14T12:02:58;18.15;;;11.45;;
36797;SDS011;22748;8.426;99.512;2023-06-14T12:05:30;20.17;;;12.13;;
36797;SDS011;22748;8.426;99.512;2023-06-14T12:08:05;17.73;;;11.70;;
36797;SDS011;22748;8.426;99.512;2023-06-14T12:10:51;19.27;;;10.40;;
36797;SDS011;22748;8.426;99.512;2023-06-14T12:13:24;17.70;;;9.63;;
36797;SDS011;22748;8.426;99.512;2023-06-14T12:16:02;13.05;;;8.57;;
36797;SDS011;22748;8.426;99.512;2023-06-14T12:18:39;17.85;;;9.25;;
36797;SDS011;22748;8.426;99.512;2023-06-14T12:21:11;12.23;;;8.02;;
36797;SDS011;22748;8.426;99.512;2023-06-14T12:23:47;14.40;;;8.57;;
36797;SDS011;22748;8.426;99.512;2023-06-14T12:26:18;17.42;;;7.40;;
36797;SDS011;22748;8.426;99.512;2023-06-14T12:28:51;25.77;;;7.72;;
36797;SDS011;22748;8.426;99.512;2023-06-14T12:31:22;11.85;;;6.68;;
36797;SDS011;22748;8.426;99.512;2023-06-14T12:33:53;14.48;;;6.75;;
36797;SDS011;22748;8.426;99.512;2023-06-14T12:36:24;13.80;;;7.53;;
36797;SDS011;22748;8.426;99.512;2023-06-14T12:38:59;21.00;;;8.02;;
36797;SDS011;22748;8.426;99.512;2023-06-14T12:41:34;22.67;;;7.63;;
36797;SDS011;22748;8.426;99.512;2023-06-14T12:44:07;21.80;;;12.23;;
36797;SDS011;22748;8.426;99.512;2023-06-14T12:46:38;41.50;;;26.23;;
36797;SDS011;22748;8.426;99.512;2023-06-14T12:49:08;63.67;;;37.42;;
36797;SDS011;22748;8.426;99.512;2023-06-14T12:51:40;71.47;;;42.13;;
36797;SDS011;22748;8.426;99.512;2023-06-14T12:54:23;78.57;;;46.40;;
36797;SDS011;22748;8.426;99.512;2023-06-14T12:56:53;122.32;;;79.55;;
36797;SDS011;22748;8.426;99.512;2023-06-14T12:59:24;122.10;;;77.27;;
36797;SDS011;22748;8.426;99.512;2023-06-14T13:02:10;126.00;;;81.20;;
36797;SDS011;22748;8.426;99.512;2023-06-14T13:04:43;118.20;;;80.25;;
36797;SDS011;22748;8.426;99.512;2023-06-14T13:07:14;116.28;;;74.47;;
36797;SDS011;22748;8.426;99.512;2023-06-14T13:09:46;95.32;;;61.65;;
36797;SDS011;22748;8.426;99.512;2023-06-14T13:12:17;88.93;;;57.20;;
36797;SDS011;22748;8.426;99.512;2023-06-14T13:14:48;97.38;;;62.53;;
36797;SDS011;22748;8.426;99.512;2023-06-14T13:17:19;119.53;;;72.28;;
36797;SDS011;22748;8.426;99.512;2023-06-14T13:19:51;124.63;;;77.07;;
36797;SDS011;22748;8.426;99.512;2023-06-14T13:22:21;136.65;;;83.15;;
36797;SDS011;22748;8.426;99.512;2023-06-14T13:24:57;127.45;;;73.22;;
36797;SDS011;22748;8.426;99.512;2023-06-14T13:27:33;106.28;;;61.40;;
36797;SDS011;22748;8.426;99.512;2023-06-14T13:30:04;90.38;;;51.97;;
36797;SDS011;22748;8.426;99.512;2023-06-14T13:32:48;84.70;;;48.28;;
36797;SDS011;22748;8.426;99.512;2023-06-14T13:35:18;72.32;;;44.08;;
36797;SDS011;22748;8.426;99.512;2023-06-14T13:37:51;65.05;;;38.35;;
36797;SDS011;22748;8.426;99.512;2023-06-14T13:40:23;55.58;;;33.40;;
36797;SDS011;22748;8.426;99.512;2023-06-14T13:42:55;43.15;;;26.98;;
36797;SDS011;22748;8.426;99.512;2023-06-14T13:45:26;52.13;;;29.83;;
36797;SDS011;22748;8.426;99.512;2023-06-14T13:47:57;66.47;;;36.03;;
36797;SDS011;22748;8.426;99.512;2023-06-14T13:52:59;72.40;;;38.20;;
36797;SDS011;22748;8.426;99.512;2023-06-14T13:55:32;64.88;;;38.75;;
36797;SDS011;22748;8.426;99.512;2023-06-14T13:58:02;63.80;;;35.97;;
36797;SDS011;22748;8.426;99.512;2023-06-14T14:00:34;60.72;;;33.45;;
36797;SDS011;22748;8.426;99.512;2023-06-14T14:03:07;52.25;;;30.55;;
36797;SDS011;22748;8.426;99.512;2023-06-14T14:05:37;44.13;;;26.20;;
36797;SDS011;22748;8.426;99.512;2023-06-14T14:08:07;50.40;;;28.42;;
36797;SDS011;22748;8.426;99.512;2023-06-14T14:10:40;45.53;;;28.27;;
36797;SDS011;22748;8.426;99.512;2023-06-14T14:13:10;48.78;;;28.08;;
36797;SDS011;22748;8.426;99.512;2023-06-14T14:15:40;54.33;;;34.83;;
36797;SDS011;22748;8.426;99.512;2023-06-14T14:18:11;61.27;;;33.53;;
36797;SDS011;22748;8.426;99.512;2023-06-14T14:20:42;53.85;;;31.80;;
36797;SDS011;22748;8.426;99.512;2023-06-14T14:23:13;55.47;;;33.05;;
36797;SDS011;22748;8.426;99.512;2023-06-14T14:25:46;57.60;;;33.30;;
36797;SDS011;22748;8.426;99.512;2023-06-14T14:28:16;54.03;;;32.88;;
36797;SDS011;22748;8.426;99.512;2023-06-14T14:30:47;60.95;;;33.08;;
36797;SDS011;22748;8.426;99.512;2023-06-14T14:33:17;53.03;;;28.70;;
36797;SDS011;22748;8.426;99.512;2023-06-14T14:35:48;47.45;;;26.58;;
36797;SDS011;22748;8.426;99.512;2023-06-14T14:38:21;40.88;;;26.13;;
36797;SDS011;22748;8.426;99.512;2023-06-14T14:40:54;40.67;;;24.55;;
36797;SDS011;22748;8.426;99.512;2023-06-14T14:43:24;38.22;;;24.73;;
36797;SDS011;22748;8.426;99.512;2023-06-14T14:45:56;41.88;;;24.73;;
36797;SDS011;22748;8.426;99.512;2023-06-14T14:48:30;39.55;;;25.58;;
36797;SDS011;22748;8.426;99.512;2023-06-14T14:51:02;35.47;;;23.75;;
36797;SDS011;22748;8.426;99.512;2023-06-14T14:53:35;38.53;;;23.38;;
36797;SDS011;22748;8.426;99.512;2023-06-14T14:56:08;37.30;;;23.20;;
36797;SDS011;22748;8.426;99.512;2023-06-14T14:58:40;41.72;;;25.20;;
36797;SDS011;22748;8.426;99.512;2023-06-14T15:01:12;45.20;;;26.50;;
36797;SDS011;22748;8.426;99.512;2023-06-14T15:03:48;39.35;;;26.02;;
36797;SDS011;22748;8.426;99.512;2023-06-14T15:06:18;40.33;;;23.77;;
36797;SDS011;22748;8.426;99.512;2023-06-14T15:08:54;36.20;;;22.10;;
36797;SDS011;22748;8.426;99.512;2023-06-14T15:11:27;36.33;;;23.38;;
36797;SDS011;22748;8.426;99.512;2023-06-14T15:13:58;33.38;;;22.13;;
36797;SDS011;22748;8.426;99.512;2023-06-14T15:16:29;32.47;;;21.40;;
36797;SDS011;22748;8.426;99.512;2023-06-14T15:19:00;30.20;;;20.70;;
36797;SDS011;22748;8.426;99.512;2023-06-14T15:21:32;31.38;;;21.20;;
36797;SDS011;22748;8.426;99.512;2023-06-14T15:24:03;29.48;;;20.35;;
36797;SDS011;22748;8.426;99.512;2023-06-14T15:26:42;32.28;;;23.83;;
36797;SDS011;22748;8.426;99.512;2023-06-14T15:29:13;33.47;;;23.95;;
36797;SDS011;22748;8.426;99.512;2023-06-14T15:31:45;30.55;;;20.52;;
36797;SDS011;22748;8.426;99.512;2023-06-14T15:34:16;27.00;;;18.17;;
36797;SDS011;22748;8.426;99.512;2023-06-14T15:36:46;25.42;;;18.05;;
36797;SDS011;22748;8.426;99.512;2023-06-14T15:39:18;20.00;;;15.48;;
36797;SDS011;22748;8.426;99.512;2023-06-14T15:41:50;25.83;;;15.03;;
36797;SDS011;22748;8.426;99.512;2023-06-14T15:44:21;24.10;;;14.82;;
36797;SDS011;22748;8.426;99.512;2023-06-14T15:46:53;22.93;;;15.53;;
36797;SDS011;22748;8.426;99.512;2023-06-14T15:49:23;17.95;;;13.27;;